createdAt,value
2023-04-13T00:00:48.671Z,45.69
2023-04-13T00:03:18.126Z,45.75
2023-04-13T00:05:46.718Z,45.39
2023-04-13T00:08:14.884Z,45.60
2023-04-13T00:10:42.569Z,45.70
2023-04-13T00:13:11.194Z,45.76
2023-04-13T00:15:42.191Z,45.42
2023-04-13T00:18:11.236Z,45.32
2023-04-13T00:20:41.124Z,45.35
2023-04-13T00:23:09.227Z,45.44
2023-04-13T00:25:37.108Z,45.42
2023-04-13T00:28:06.524Z,45.49
2023-04-13T00:30:34.444Z,45.59
2023-04-13T00:33:06.131Z,45.71
2023-04-13T00:35:34.310Z,45.80
2023-04-13T00:38:05.697Z,45.86
2023-04-13T00:40:33.800Z,46.03
2023-04-13T00:43:02.428Z,46.01
2023-04-13T00:45:30.332Z,46.26
2023-04-13T00:47:58.664Z,46.30
2023-04-13T00:50:26.799Z,46.08
2023-04-13T00:52:54.951Z,45.97
2023-04-13T00:55:22.987Z,45.26
2023-04-13T00:57:53.123Z,44.89
2023-04-13T01:00:22.063Z,44.68
2023-04-13T01:02:52.907Z,44.57
2023-04-13T01:05:21.624Z,44.52
2023-04-13T01:07:55.605Z,44.15
2023-04-13T01:10:39.604Z,44.10
2023-04-13T01:13:37.936Z,43.74
2023-04-13T01:16:33.281Z,43.73
2023-04-13T01:19:06.661Z,43.51
2023-04-13T01:21:36.150Z,43.74
2023-04-13T01:24:40.788Z,43.14
2023-04-13T01:27:16.631Z,43.39
2023-04-13T01:29:47.040Z,43.25
2023-04-13T01:32:17.278Z,43.44
2023-04-13T01:34:46.151Z,43.69
2023-04-13T01:37:14.552Z,43.86
2023-04-13T01:39:42.673Z,43.34
2023-04-13T01:42:21.170Z,43.38
2023-04-13T01:44:51.589Z,43.83
2023-04-13T01:47:22.991Z,43.60
2023-04-13T01:50:13.657Z,43.32
2023-04-13T01:53:14.135Z,43.86
2023-04-13T01:55:45.856Z,43.75
2023-04-13T01:58:15.715Z,44.00
2023-04-13T02:00:48.598Z,44.07
2023-04-13T02:03:16.651Z,44.14
2023-04-13T02:05:45.006Z,43.96
2023-04-13T02:08:14.023Z,44.25
2023-04-13T02:10:47.163Z,44.26
2023-04-13T02:13:15.071Z,44.19
2023-04-13T02:15:43.003Z,44.78
2023-04-13T02:18:13.602Z,44.56
2023-04-13T02:20:45.361Z,44.72
2023-04-13T02:23:18.191Z,44.41
2023-04-13T02:25:48.164Z,44.43
2023-04-13T02:28:18.239Z,44.30
2023-04-13T02:30:47.573Z,44.99
2023-04-13T02:33:15.408Z,45.02
2023-04-13T02:36:12.546Z,46.70
2023-04-13T02:38:54.731Z,46.84
2023-04-13T02:41:34.552Z,46.96
2023-04-13T02:44:03.195Z,47.10
2023-04-13T02:46:41.448Z,46.33
2023-04-13T02:49:15.245Z,45.15
2023-04-13T02:51:56.316Z,44.58
2023-04-13T02:54:36.460Z,42.68
2023-04-13T02:57:05.228Z,41.73
2023-04-13T02:59:36.646Z,41.16
2023-04-13T03:02:08.935Z,40.08
2023-04-13T03:04:37.227Z,39.85
2023-04-13T03:07:07.983Z,38.17
2023-04-13T03:09:37.508Z,37.76
2023-04-13T03:12:07.683Z,37.95
2023-04-13T03:14:38.141Z,37.48
2023-04-13T03:17:10.431Z,37.91
2023-04-13T03:19:46.993Z,37.14
2023-04-13T03:22:16.783Z,35.69
2023-04-13T03:24:48.084Z,36.30
2023-04-13T03:27:27.697Z,36.03
2023-04-13T03:30:07.067Z,35.21
2023-04-13T03:32:50.105Z,33.95
2023-04-13T03:35:18.742Z,34.76
2023-04-13T03:37:48.638Z,34.61
2023-04-13T03:40:45.225Z,34.30
2023-04-13T03:43:15.309Z,35.01
2023-04-13T03:45:50.311Z,34.09
2023-04-13T03:48:23.001Z,33.87
2023-04-13T03:50:52.059Z,34.02
2023-04-13T03:53:25.999Z,34.90
2023-04-13T03:55:57.023Z,34.10
2023-04-13T03:58:25.352Z,34.33
2023-04-13T04:00:58.134Z,34.24
2023-04-13T04:03:40.932Z,34.06
2023-04-13T04:06:11.164Z,33.69
2023-04-13T04:08:45.663Z,33.30
2023-04-13T04:11:32.960Z,33.22
2023-04-13T04:14:03.674Z,33.58
2023-04-13T04:16:37.641Z,33.29
2023-04-13T04:19:13.189Z,33.51
2023-04-13T04:21:45.376Z,33.46
2023-04-13T04:24:28.394Z,33.42
2023-04-13T04:27:00.737Z,33.18
2023-04-13T04:29:36.305Z,32.88
2023-04-13T04:32:24.360Z,32.69
2023-04-13T04:34:55.729Z,32.82
2023-04-13T04:37:26.207Z,33.36
2023-04-13T04:40:10.375Z,33.25
2023-04-13T04:42:39.650Z,32.93
2023-04-13T04:45:17.306Z,32.50
2023-04-13T04:47:50.091Z,32.84
2023-04-13T04:50:22.153Z,32.24
2023-04-13T04:52:56.701Z,32.26
2023-04-13T04:55:25.967Z,32.84
2023-04-13T04:57:54.676Z,33.91
2023-04-13T05:00:26.729Z,33.97
2023-04-13T05:03:11.304Z,33.82
2023-04-13T05:05:44.375Z,34.47
2023-04-13T05:08:17.054Z,34.73
2023-04-13T05:10:48.918Z,34.23
2023-04-13T05:13:16.889Z,33.82
2023-04-13T05:15:52.934Z,33.29
2023-04-13T05:18:20.909Z,33.59
2023-04-13T05:20:48.679Z,33.43
2023-04-13T05:23:16.516Z,33.31
2023-04-13T05:25:52.916Z,32.73
2023-04-13T05:28:22.556Z,33.48
2023-04-13T05:30:50.480Z,33.23
2023-04-13T05:33:19.034Z,32.68
2023-04-13T05:35:49.389Z,31.81
2023-04-13T05:38:17.166Z,32.16
2023-04-13T05:40:45.301Z,31.54
2023-04-13T05:43:14.254Z,32.18
2023-04-13T05:45:52.919Z,31.49
2023-04-13T05:48:21.193Z,31.98
2023-04-13T05:50:51.688Z,31.60
2023-04-13T05:53:19.620Z,32.05
2023-04-13T05:55:52.815Z,31.72
2023-04-13T05:58:22.164Z,32.04
2023-04-13T06:00:56.962Z,31.96
2023-04-13T06:03:30.641Z,32.83
2023-04-13T06:05:59.683Z,32.88
2023-04-13T06:08:32.864Z,31.86
2023-04-13T06:11:01.809Z,32.18
2023-04-13T06:13:31.919Z,32.07
2023-04-13T06:15:59.922Z,31.71
2023-04-13T06:18:28.477Z,31.92
2023-04-13T06:21:01.939Z,32.25
2023-04-13T06:23:30.008Z,32.57
2023-04-13T06:26:02.678Z,32.14
2023-04-13T06:28:44.011Z,32.69
2023-04-13T06:31:15.768Z,33.17
2023-04-13T06:33:45.709Z,33.50
2023-04-13T06:36:13.699Z,33.01
2023-04-13T06:38:42.517Z,33.55
2023-04-13T06:41:14.017Z,33.87
2023-04-13T06:43:45.695Z,33.50
2023-04-13T06:46:28.708Z,33.61
2023-04-13T06:49:02.675Z,33.39
2023-04-13T06:51:34.131Z,32.97
2023-04-13T06:54:02.204Z,32.99
2023-04-13T06:56:29.986Z,33.11
2023-04-13T06:59:02.628Z,33.04
2023-04-13T07:01:32.498Z,32.82
2023-04-13T07:04:00.657Z,32.75
2023-04-13T07:06:29.176Z,33.00
2023-04-13T07:08:58.360Z,33.18
2023-04-13T07:11:27.494Z,34.00
2023-04-13T07:13:55.459Z,33.56
2023-04-13T07:16:25.851Z,33.80
2023-04-13T07:18:53.577Z,33.41
2023-04-13T07:21:21.841Z,33.35
2023-04-13T07:24:00.731Z,33.09
2023-04-13T07:26:30.043Z,33.37
2023-04-13T07:28:58.934Z,34.04
2023-04-13T07:31:30.416Z,34.01
2023-04-13T07:33:58.388Z,34.19
2023-04-13T07:36:33.055Z,33.67
2023-04-13T07:39:08.944Z,33.89
2023-04-13T07:41:39.535Z,33.77
2023-04-13T07:44:10.223Z,33.47
2023-04-13T07:46:39.261Z,33.51
2023-04-13T07:49:11.045Z,33.40
2023-04-13T07:51:40.287Z,32.92
2023-04-13T07:54:08.230Z,33.17
2023-04-13T07:56:37.624Z,33.41
2023-04-13T07:59:07.763Z,33.42
2023-04-13T08:01:37.131Z,33.61
2023-04-13T08:04:05.789Z,32.82
2023-04-13T08:06:34.836Z,32.75
2023-04-13T08:09:03.423Z,33.02
2023-04-13T08:11:31.639Z,32.97
2023-04-13T08:14:11.572Z,32.99
2023-04-13T08:16:40.900Z,34.10
2023-04-13T08:19:11.479Z,35.57
2023-04-13T08:21:45.751Z,42.45
2023-04-13T08:24:15.632Z,40.75
2023-04-13T08:26:44.611Z,39.75
2023-04-13T08:29:14.994Z,38.69
2023-04-13T08:31:43.443Z,38.35
2023-04-13T08:34:12.508Z,37.58
2023-04-13T08:36:40.500Z,35.67
2023-04-13T08:39:10.757Z,38.05
2023-04-13T08:41:45.798Z,37.08
2023-04-13T08:44:16.001Z,37.01
2023-04-13T08:46:47.162Z,36.35
2023-04-13T08:49:18.855Z,33.89
2023-04-13T08:52:16.489Z,33.84
2023-04-13T08:54:48.204Z,32.92
2023-04-13T08:57:28.034Z,33.68
2023-04-13T08:59:58.404Z,33.75
2023-04-13T09:02:34.685Z,32.62
2023-04-13T09:05:16.739Z,30.64
2023-04-13T09:07:54.003Z,29.97
2023-04-13T09:10:26.006Z,33.74
2023-04-13T09:12:54.974Z,30.86
2023-04-13T09:15:24.774Z,30.83
2023-04-13T09:18:17.545Z,33.38
2023-04-13T09:20:59.061Z,33.65
2023-04-13T09:23:26.955Z,32.80
2023-04-13T09:26:06.386Z,35.42
2023-04-13T09:28:34.659Z,35.25
2023-04-13T09:31:05.965Z,34.32
2023-04-13T09:33:47.599Z,31.33
2023-04-13T09:36:18.364Z,33.52
2023-04-13T09:38:55.457Z,32.80
2023-04-13T09:41:30.931Z,32.30
2023-04-13T09:44:00.012Z,32.10
2023-04-13T09:46:28.170Z,33.66
2023-04-13T09:49:03.654Z,32.52
2023-04-13T09:51:42.085Z,31.61
2023-04-13T09:54:11.661Z,30.35
2023-04-13T09:56:44.590Z,32.50
2023-04-13T09:59:13.323Z,30.35
2023-04-13T10:01:41.891Z,29.54
2023-04-13T10:04:10.589Z,30.07
2023-04-13T10:06:47.180Z,28.76
2023-04-13T10:09:15.471Z,30.34
2023-04-13T10:11:47.615Z,29.77
2023-04-13T10:14:21.914Z,28.40
2023-04-13T10:16:54.206Z,28.55
2023-04-13T10:19:25.064Z,28.51
2023-04-13T10:21:54.837Z,27.47
2023-04-13T10:24:24.194Z,28.09
2023-04-13T10:27:00.394Z,28.61
2023-04-13T10:29:29.814Z,29.02
2023-04-13T10:32:03.605Z,28.80
2023-04-13T10:34:34.557Z,29.08
2023-04-13T10:37:07.093Z,28.93
2023-04-13T10:39:36.428Z,28.27
2023-04-13T10:42:09.870Z,26.92
2023-04-13T10:44:43.540Z,26.92
2023-04-13T10:47:12.976Z,25.76
2023-04-13T10:49:43.308Z,27.18
2023-04-13T10:52:11.905Z,28.52
2023-04-13T10:54:42.093Z,29.71
2023-04-13T10:57:11.718Z,27.60
2023-04-13T10:59:58.080Z,27.78
2023-04-13T11:02:33.178Z,26.68
2023-04-13T11:05:02.917Z,28.85
2023-04-13T11:07:31.752Z,29.24
2023-04-13T11:12:32.298Z,27.37
2023-04-13T11:15:01.068Z,26.05
2023-04-13T11:17:30.122Z,26.83
2023-04-13T11:20:02.058Z,26.88
2023-04-13T11:22:36.024Z,26.98
2023-04-13T11:25:08.808Z,27.63
2023-04-13T11:27:38.162Z,26.34
2023-04-13T11:30:07.798Z,27.22
2023-04-13T11:32:38.483Z,26.87
2023-04-13T11:35:10.483Z,26.68
2023-04-13T11:37:41.021Z,26.07
2023-04-13T11:40:14.763Z,25.20
2023-04-13T11:42:46.001Z,26.31
2023-04-13T11:45:15.111Z,25.09
2023-04-13T11:47:44.790Z,25.24
2023-04-13T11:50:15.495Z,26.35
2023-04-13T11:52:47.378Z,25.47
2023-04-13T11:55:23.154Z,26.05
2023-04-13T11:57:53.645Z,25.78
2023-04-13T12:00:27.257Z,25.71
2023-04-13T12:05:32.370Z,25.03
2023-04-13T12:08:03.010Z,25.50
2023-04-13T12:10:43.476Z,25.09
2023-04-13T12:13:35.281Z,25.08
2023-04-13T12:16:09.591Z,25.67
2023-04-13T12:18:49.997Z,26.20
2023-04-13T12:21:21.000Z,26.08
2023-04-13T12:23:56.951Z,26.52
2023-04-13T12:29:09.115Z,25.42
2023-04-13T12:31:39.984Z,24.69
2023-04-13T12:34:08.543Z,23.94
2023-04-13T12:36:37.046Z,24.63
2023-04-13T12:39:05.059Z,23.88
2023-04-13T12:41:33.506Z,24.32
2023-04-13T12:44:02.339Z,23.50
2023-04-13T12:46:30.531Z,24.02
2023-04-13T12:48:59.108Z,24.29
2023-04-13T12:51:27.032Z,23.29
2023-04-13T12:53:54.833Z,24.00
2023-04-13T12:56:25.037Z,24.01
2023-04-13T12:58:56.655Z,24.23
2023-04-13T13:01:24.984Z,25.15
2023-04-13T13:03:53.051Z,25.31
2023-04-13T13:06:21.015Z,26.09
2023-04-13T13:08:49.206Z,26.42
2023-04-13T13:11:17.069Z,26.74
2023-04-13T13:13:45.316Z,26.59
2023-04-13T13:16:14.287Z,26.93
2023-04-13T13:18:50.325Z,26.69
2023-04-13T13:21:20.181Z,28.80
2023-04-13T13:23:48.062Z,29.00
2023-04-13T13:28:47.381Z,28.56
2023-04-13T13:31:15.729Z,29.40
2023-04-13T13:33:43.756Z,28.87
2023-04-13T13:36:14.643Z,29.27
2023-04-13T13:38:43.825Z,29.07
2023-04-13T13:41:13.613Z,29.23
2023-04-13T13:43:41.441Z,29.63
2023-04-13T13:46:10.659Z,28.78
2023-04-13T13:48:39.949Z,28.92
2023-04-13T13:51:43.453Z,27.63
2023-04-13T13:54:16.287Z,27.49
2023-04-13T13:56:44.200Z,28.02
2023-04-13T13:59:12.192Z,27.53
2023-04-13T14:01:40.986Z,27.27
2023-04-13T14:04:09.528Z,26.93
2023-04-13T14:06:37.239Z,26.25
2023-04-13T14:09:06.118Z,26.04
2023-04-13T14:11:34.984Z,26.08
2023-04-13T14:14:10.799Z,25.55
2023-04-13T14:16:42.632Z,25.87
2023-04-13T14:19:11.522Z,25.39
2023-04-13T14:21:39.217Z,24.97
2023-04-13T14:24:07.631Z,25.32
2023-04-13T14:26:38.515Z,25.87
2023-04-13T14:29:09.956Z,27.10
2023-04-13T14:31:38.989Z,26.67
2023-04-13T14:34:08.153Z,26.04
2023-04-13T14:36:37.157Z,24.77
2023-04-13T14:39:07.102Z,24.73
2023-04-13T14:41:38.022Z,24.37
2023-04-13T14:44:07.834Z,24.86
2023-04-13T14:46:35.443Z,24.99
2023-04-13T14:49:03.952Z,24.91
2023-04-13T14:51:37.339Z,24.43
2023-04-13T14:54:09.840Z,23.94
2023-04-13T14:56:40.432Z,24.12
2023-04-13T14:59:10.161Z,24.60
2023-04-13T15:01:41.056Z,24.49
2023-04-13T15:04:10.148Z,24.40
2023-04-13T15:06:40.477Z,24.66
2023-04-13T15:09:12.008Z,24.67
2023-04-13T15:11:42.514Z,25.07
2023-04-13T15:14:12.292Z,25.37
2023-04-13T15:16:41.598Z,25.58
2023-04-13T15:19:14.088Z,26.12
2023-04-13T15:21:48.357Z,25.99
2023-04-13T15:24:17.955Z,26.35
2023-04-13T15:26:48.096Z,27.51
2023-04-13T15:29:16.215Z,26.75
2023-04-13T15:31:52.196Z,26.72
2023-04-13T15:34:23.182Z,26.19
2023-04-13T15:36:53.980Z,27.65
2023-04-13T15:39:23.279Z,27.59
2023-04-13T15:41:59.609Z,27.51
2023-04-13T15:44:29.235Z,30.57
2023-04-13T15:47:00.018Z,30.41
2023-04-13T15:49:35.344Z,27.27
2023-04-13T15:52:05.292Z,30.55
2023-04-13T15:54:35.535Z,29.51
2023-04-13T15:57:05.141Z,29.45
2023-04-13T15:59:35.308Z,29.44
2023-04-13T16:02:08.177Z,29.80
2023-04-13T16:04:36.393Z,28.85
2023-04-13T16:07:13.531Z,27.41
2023-04-13T16:09:50.069Z,26.75
2023-04-13T16:12:18.976Z,27.38
2023-04-13T16:14:52.936Z,28.73
2023-04-13T16:17:32.133Z,29.32
2023-04-13T16:20:06.940Z,28.69
2023-04-13T16:22:38.207Z,27.98
2023-04-13T16:25:11.859Z,25.53
2023-04-13T16:27:40.387Z,26.87
2023-04-13T16:30:13.510Z,26.97
2023-04-13T16:32:46.541Z,26.79
2023-04-13T16:35:18.607Z,25.55
2023-04-13T16:37:50.938Z,27.04
2023-04-13T16:40:20.845Z,25.88
2023-04-13T16:42:53.037Z,25.10
2023-04-13T16:45:26.874Z,24.71
2023-04-13T16:47:58.112Z,25.60
2023-04-13T16:50:32.739Z,25.10
2023-04-13T16:53:01.368Z,26.18
2023-04-13T16:55:31.446Z,26.33
2023-04-13T16:58:07.475Z,26.78
2023-04-13T17:00:36.033Z,26.29
2023-04-13T17:03:07.121Z,26.78
2023-04-13T17:05:40.958Z,29.38
2023-04-13T17:08:14.052Z,30.71
2023-04-13T17:10:49.107Z,29.02
2023-04-13T17:13:18.031Z,28.92
2023-04-13T17:15:46.824Z,28.91
2023-04-13T17:18:17.522Z,29.45
2023-04-13T17:20:55.166Z,28.81
2023-04-13T17:23:27.116Z,29.62
2023-04-13T17:26:01.198Z,30.64
2023-04-13T17:28:30.155Z,28.36
2023-04-13T17:31:03.149Z,27.98
2023-04-13T17:33:32.769Z,27.53
2023-04-13T17:36:06.373Z,27.66
2023-04-13T17:38:39.044Z,28.71
2023-04-13T17:41:11.318Z,28.83
2023-04-13T17:43:41.774Z,27.83
2023-04-13T17:46:13.618Z,27.25
2023-04-13T17:48:44.542Z,27.33
2023-04-13T17:51:15.754Z,27.15
2023-04-13T17:53:44.486Z,30.90
2023-04-13T17:56:20.435Z,33.31
2023-04-13T17:58:49.250Z,32.21
2023-04-13T18:01:17.304Z,32.52
2023-04-13T18:03:47.737Z,31.04
2023-04-13T18:06:20.088Z,31.45
2023-04-13T18:08:49.963Z,30.49
2023-04-13T18:11:19.148Z,29.96
2023-04-13T18:13:48.041Z,29.96
2023-04-13T18:16:16.776Z,30.60
2023-04-13T18:18:46.926Z,31.28
2023-04-13T18:21:20.842Z,30.33
2023-04-13T18:23:52.419Z,31.26
2023-04-13T18:26:23.782Z,31.27
2023-04-13T18:28:55.122Z,32.09
2023-04-13T18:31:27.082Z,30.66
2023-04-13T18:33:59.075Z,30.22
2023-04-13T18:36:29.232Z,29.76
2023-04-13T18:38:58.522Z,29.52
2023-04-13T18:41:32.299Z,29.07
2023-04-13T18:44:03.540Z,29.87
2023-04-13T18:46:32.998Z,28.89
2023-04-13T18:49:03.643Z,28.67
2023-04-13T18:51:38.997Z,29.29
2023-04-13T18:54:09.064Z,30.02
2023-04-13T18:56:39.424Z,29.94
2023-04-13T18:59:09.285Z,29.38
2023-04-13T19:01:39.083Z,28.78
2023-04-13T19:04:10.680Z,29.08
2023-04-13T19:06:40.076Z,29.47
2023-04-13T19:09:09.427Z,30.14
2023-04-13T19:11:49.952Z,28.64
2023-04-13T19:14:20.099Z,28.52
2023-04-13T19:16:53.023Z,28.77
2023-04-13T19:19:24.772Z,28.54
2023-04-13T19:21:55.213Z,28.79
2023-04-13T19:24:27.270Z,28.32
2023-04-13T19:26:56.948Z,28.58
2023-04-13T19:29:30.321Z,28.67
2023-04-13T19:32:01.129Z,28.86
2023-04-13T19:34:31.552Z,28.96
2023-04-13T19:37:02.319Z,28.49
2023-04-13T19:39:30.342Z,28.53
2023-04-13T19:42:01.329Z,29.02
2023-04-13T19:44:36.090Z,28.88
2023-04-13T19:47:08.517Z,28.71
2023-04-13T19:49:38.251Z,28.90
2023-04-13T19:52:16.164Z,29.63
2023-04-13T19:54:45.192Z,29.80
2023-04-13T19:57:19.420Z,29.84
2023-04-13T19:59:50.990Z,31.64
2023-04-13T20:02:22.228Z,31.62
2023-04-13T20:04:55.170Z,32.91
2023-04-13T20:07:24.465Z,34.17
2023-04-13T20:09:55.101Z,33.43
2023-04-13T20:12:26.488Z,33.23
2023-04-13T20:14:56.866Z,34.20
2023-04-13T20:17:27.979Z,34.77
2023-04-13T20:20:01.369Z,35.77
2023-04-13T20:22:30.496Z,35.07
2023-04-13T20:25:02.097Z,35.69
2023-04-13T20:27:30.798Z,35.57
2023-04-13T20:30:03.509Z,35.78
2023-04-13T20:32:32.735Z,35.25
2023-04-13T20:35:04.080Z,34.61
2023-04-13T20:37:33.585Z,33.56
2023-04-13T20:40:02.925Z,33.08
2023-04-13T20:42:33.523Z,32.91
2023-04-13T20:45:01.997Z,33.37
2023-04-13T20:47:37.214Z,32.97
2023-04-13T20:50:05.706Z,32.35
2023-04-13T20:52:36.320Z,31.71
2023-04-13T20:55:05.496Z,31.41
2023-04-13T20:57:42.540Z,31.13
2023-04-13T21:00:15.752Z,30.56
2023-04-13T21:02:47.301Z,30.63
2023-04-13T21:05:19.513Z,30.70
2023-04-13T21:07:50.490Z,31.00
2023-04-13T21:10:20.207Z,30.08
2023-04-13T21:12:51.052Z,30.23
2023-04-13T21:15:21.332Z,31.03
2023-04-13T21:17:51.888Z,31.88
2023-04-13T21:20:23.656Z,33.12
2023-04-13T21:22:52.566Z,34.24
2023-04-13T21:25:24.156Z,35.22
2023-04-13T21:27:53.667Z,35.60
2023-04-13T21:30:24.046Z,36.10
2023-04-13T21:32:53.528Z,36.33
2023-04-13T21:35:23.217Z,37.28
2023-04-13T21:37:53.158Z,36.83
2023-04-13T21:40:25.785Z,37.41
2023-04-13T21:42:57.140Z,37.53
2023-04-13T21:45:26.599Z,37.43
2023-04-13T21:47:54.658Z,37.75
2023-04-13T21:50:25.574Z,37.57
2023-04-13T21:52:57.797Z,37.77
2023-04-13T21:55:29.984Z,37.71
2023-04-13T21:58:01.080Z,37.38
2023-04-13T22:00:32.547Z,37.69
2023-04-13T22:03:04.365Z,37.98
2023-04-13T22:05:34.720Z,38.05
2023-04-13T22:08:06.404Z,38.05
2023-04-13T22:10:35.316Z,38.23
2023-04-13T22:13:05.866Z,38.03
2023-04-13T22:15:37.394Z,38.52
2023-04-13T22:18:09.604Z,38.42
2023-04-13T22:20:38.461Z,38.51
2023-04-13T22:23:09.231Z,38.98
2023-04-13T22:25:39.216Z,38.70
2023-04-13T22:28:07.959Z,39.39
2023-04-13T22:30:37.324Z,39.63
2023-04-13T22:33:07.190Z,39.50
2023-04-13T22:35:38.083Z,40.14
2023-04-13T22:38:10.861Z,39.53
2023-04-13T22:40:41.049Z,39.41
2023-04-13T22:43:09.737Z,39.90
2023-04-13T22:45:38.238Z,39.78
2023-04-13T22:48:08.337Z,40.14
2023-04-13T22:50:40.141Z,39.81
2023-04-13T22:53:08.050Z,40.07
2023-04-13T22:55:42.236Z,39.31
2023-04-13T22:58:12.365Z,39.86
2023-04-13T23:00:43.144Z,39.79
2023-04-13T23:03:15.480Z,39.72
2023-04-13T23:05:48.145Z,39.98
2023-04-13T23:08:18.121Z,39.84
2023-04-13T23:10:50.204Z,39.86
2023-04-13T23:13:19.463Z,39.71
2023-04-13T23:15:48.362Z,40.06
2023-04-13T23:18:17.616Z,40.09
2023-04-13T23:20:47.451Z,40.18
2023-04-13T23:23:17.332Z,40.29
2023-04-13T23:25:53.217Z,40.53
2023-04-13T23:28:21.596Z,40.53
2023-04-13T23:30:50.724Z,40.78
2023-04-13T23:33:23.066Z,40.67
2023-04-13T23:35:53.092Z,40.98
2023-04-13T23:38:22.683Z,40.66
2023-04-13T23:40:51.668Z,41.26
2023-04-13T23:43:23.284Z,40.97
2023-04-13T23:45:53.768Z,40.83
2023-04-13T23:48:23.109Z,40.78
2023-04-13T23:50:54.137Z,41.02
2023-04-13T23:53:26.236Z,40.93
2023-04-13T23:55:58.626Z,40.91
2023-04-13T23:58:29.462Z,41.22
